Weather at Ravalli County Airport

Public forecast

Using degrees Fahrenheit for public forecast. Weather courtesy of forecast.io.

Current aviation weather report (METAR) for Ravalli County Airport

Retrieved 2021/06/21 04:35 UTC (4 minutes ago):

K6S5 210435Z AUTO 12004KT 10SM CLR 12/09 A3017 RMK AO2

Closest aviation forecast (TAF) to Ravalli County Airport

Closest forecast is Missoula International Airport, 39.9 nm (74.0 km) N. Retrieved 2021-06-21 00:22 UTC (4 hours ago):

TAF KMSO 202320Z 2100/2124 VRB04KT P6SM BKN060 OVC080 FM210600 10006KT P6SM SCT120 FM212100 30009KT P6SM FEW100